»·PEaware :: N8068C KSNA-KLAS

N8068C :: KSNA-KLAS

FLIGHT INFORMATION

Flight Status: Arrived
Operator: Privately registered:
United States
More flights under this callsign
Pilot: Ryan B. (29)
Aircraft: Unknown
(LNC4)
More flights by this aircraft type
Origin: KSNA John Wayne-Orange Co
United States
Destination: KLAS McCarran Intl
United States
More flights between these airports :: More routes between these airports
Route: +ANAHM3 APLES DAG CRESO3
File this flight plan on PilotEdge
Remarks: / V /
Altitude:
(Current/Filed)
190ft
Speed:
(Current/Filed)
260kts
Departed: 13-Mar-13 08:12 AM
Arrived: 13-Mar-13 09:14 AM
Distance/Time
Traveled:
196nm/1:02
Distance/Time
To Go:
Arrived

Flight Plot

Page will automatically refresh every two minutes.

Flight plan parsing failed; only flown route is shown


Map Options




Map Legend


Flown Route
Filed Route
Departure Airport
Arrival Airport
Navaid (VOR, NDB)
Fix

Horizontal Profiles

Position Reports

Time Latitude Longitude Heading Altitude Ground
Speed
13-Mar-13 08:03 33.676573 -117.871213 105 60ft 0kts
13-Mar-13 08:04 33.676573 -117.871211 105 60ft 0kts
13-Mar-13 08:05 33.676572 -117.871209 105 60ft 0kts
13-Mar-13 08:06 33.676572 -117.871206 105 60ft 0kts
13-Mar-13 08:07 33.676571 -117.871204 104 60ft 0kts
13-Mar-13 08:08 33.676570 -117.871198 103 60ft 0kts
13-Mar-13 08:09 33.676569 -117.871193 101 60ft 0kts
13-Mar-13 08:10 33.679642 -117.868168 17 60ft 29kts
13-Mar-13 08:11 33.682020 -117.866473 91 60ft 0kts
13-Mar-13 08:12 33.675713 -117.868980 208 60ft 103kts
13-Mar-13 08:13 33.648374 -117.896254 231 1391ft 152kts
13-Mar-13 08:14 33.619854 -117.940335 232 2005ft 186kts
13-Mar-13 08:15 33.586054 -117.992264 232 2551ft 184kts
13-Mar-13 08:16 33.598085 -118.031705 339 4193ft 147kts
13-Mar-13 08:17 33.639133 -118.038255 350 5405ft 151kts
13-Mar-13 08:18 33.682873 -118.043284 351 6444ft 164kts
13-Mar-13 08:19 33.729328 -118.048744 351 7454ft 171kts
13-Mar-13 08:20 33.776816 -118.048966 24 8442ft 176kts
13-Mar-13 08:21 33.798447 -117.997024 69 9465ft 182kts
13-Mar-13 08:22 33.813911 -117.938131 70 10472ft 186kts
13-Mar-13 08:23 33.829345 -117.878335 70 11473ft 188kts
13-Mar-13 08:24 33.844890 -117.818031 70 12471ft 189kts
13-Mar-13 08:25 33.860458 -117.757496 69 13469ft 190kts
13-Mar-13 08:26 33.875964 -117.697060 70 14466ft 188kts
13-Mar-13 08:27 33.891405 -117.636801 70 15469ft 188kts
13-Mar-13 08:28 33.906900 -117.576180 70 16467ft 190kts
13-Mar-13 08:29 33.930825 -117.522662 26 17454ft 183kts
13-Mar-13 08:30 33.975674 -117.496210 24 18394ft 178kts
13-Mar-13 08:31 34.020698 -117.469148 24 19092ft 183kts
13-Mar-13 08:32 34.069712 -117.439553 25 19221ft 216kts
13-Mar-13 08:33 34.126689 -117.405066 25 19248ft 238kts
13-Mar-13 08:34 34.187177 -117.368560 25 19266ft 247kts
13-Mar-13 08:35 34.248729 -117.331405 25 19292ft 253kts
13-Mar-13 08:36 34.313036 -117.292527 26 19340ft 262kts
13-Mar-13 08:37 34.378776 -117.252698 26 19359ft 266kts
13-Mar-13 08:38 34.445421 -117.212257 26 19364ft 268kts
13-Mar-13 08:39 34.511823 -117.171048 33 19370ft 268kts
13-Mar-13 08:40 34.564518 -117.106931 47 19376ft 270kts
13-Mar-13 08:41 34.614466 -117.038907 46 19371ft 270kts
13-Mar-13 08:42 34.665328 -116.971818 45 19358ft 270kts
13-Mar-13 08:43 34.716566 -116.904313 46 19332ft 271kts
13-Mar-13 08:44 34.767714 -116.836770 46 19318ft 271kts
13-Mar-13 08:45 34.819745 -116.767955 46 19285ft 278kts
13-Mar-13 08:46 34.871372 -116.699443 46 19303ft 273kts
13-Mar-13 08:47 34.922498 -116.631556 46 19304ft 272kts
13-Mar-13 08:48 34.970591 -116.560947 60 19306ft 273kts
13-Mar-13 08:49 35.006580 -116.479135 59 19302ft 273kts
13-Mar-13 08:50 35.042695 -116.397731 59 19301ft 273kts
13-Mar-13 08:51 35.078777 -116.316235 59 19301ft 273kts
13-Mar-13 08:52 35.114771 -116.234719 59 19301ft 272kts
13-Mar-13 08:53 35.150583 -116.153417 59 19198ft 272kts
13-Mar-13 08:54 35.186478 -116.071704 59 18703ft 274kts
13-Mar-13 08:55 35.222715 -115.989045 60 18121ft 278kts
13-Mar-13 08:56 35.259686 -115.904497 60 17227ft 285kts
13-Mar-13 08:57 35.297303 -115.818220 60 15944ft 290kts
13-Mar-13 08:58 35.346059 -115.740144 47 14448ft 291kts
13-Mar-13 08:59 35.400386 -115.667414 46 13194ft 286kts
13-Mar-13 09:00 35.454152 -115.595554 46 12216ft 283kts
13-Mar-13 09:01 35.506019 -115.526232 46 11986ft 268kts
13-Mar-13 09:02 35.555559 -115.459889 46 12000ft 261kts
13-Mar-13 09:03 35.604357 -115.394351 49 12004ft 260kts
13-Mar-13 09:04 35.665971 -115.346258 22 11418ft 272kts
13-Mar-13 09:05 35.736774 -115.310085 22 10565ft 281kts
13-Mar-13 09:06 35.809683 -115.271355 22 9567ft 285kts
13-Mar-13 09:07 35.881829 -115.230218 26 8335ft 286kts
13-Mar-13 09:08 35.952263 -115.186295 27 7035ft 279kts
13-Mar-13 09:09 36.018613 -115.144006 27 5729ft 255kts
13-Mar-13 09:10 36.078607 -115.105751 27 4416ft 229kts
13-Mar-13 09:11 36.129674 -115.101592 298 3341ft 187kts
13-Mar-13 09:12 36.116177 -115.146692 207 2608ft 131kts
13-Mar-13 09:13 36.091384 -115.161178 203 2185ft 57kts
13-Mar-13 09:14 36.087619 -115.165772 203 2185ft 22kts
13-Mar-13 09:15 36.081032 -115.170646 242 2185ft 24kts
13-Mar-13 09:16 36.080530 -115.171249 91 2185ft 0kts
13-Mar-13 09:17 36.080530 -115.171249 91 2185ft 0kts
13-Mar-13 09:18 36.080530 -115.171249 91 2185ft 0kts
13-Mar-13 09:19 36.080530 -115.171249 91 2185ft 0kts
13-Mar-13 09:20 36.080530 -115.171249 91 2185ft 0kts
13-Mar-13 09:21 36.080530 -115.171249 91 2185ft 0kts
13-Mar-13 09:22 36.080530 -115.171249 91 2185ft 0kts
13-Mar-13 09:23 36.080530 -115.171249 91 2185ft 0kts
13-Mar-13 09:24 36.080530 -115.171249 91 2185ft 0kts
13-Mar-13 09:25 36.080530 -115.171249 91 2185ft 0kts
13-Mar-13 09:26 36.080530 -115.171249 91 2185ft 0kts
13-Mar-13 09:27 36.080530 -115.171249 91 2185ft 0kts
13-Mar-13 09:28 36.080530 -115.171249 91 2185ft 0kts

Navigation Log

Ident Type
Flight plan parsing failed, navigation log unavailable